Date,TemperatureHighF,TemperatureAvgF,TemperatureLowF,DewpointHighF,DewpointAvgF,DewpointLowF,HumidityHigh,HumidityAvg,HumidityLow,PressureMaxIn,PressureMinIn,WindSpeedMaxMPH,WindSpeedAvgMPH,GustSpeedMaxMPH,PrecipitationSumIn
2013-2-1,56,50,46,55,50,46,100,98,81,30.31,30.22,7,2,12,0.01
2013-2-2,53,45,38,49,44,38,100,96,71,30.26,30.17,4,1,8,0.00
2013-2-3,47,44,40,47,44,40,100,100,100,30.26,30.16,2,0,8,0.00
2013-2-4,55,48,44,50,46,43,100,93,68,30.16,29.86,4,0,6,0.00
2013-2-5,57,48,45,51,46,41,100,96,61,29.94,29.81,13,2,30,0.05
2013-2-6,50,47,43,49,45,41,100,94,74,30.00,29.73,9,1,19,0.07
2013-2-7,52,44,35,44,39,30,100,84,46,30.10,29.79,5,0,12,0.00
2013-2-8,48,40,31,44,35,31,100,86,55,30.22,30.11,10,1,15,0.00
2013-2-9,50,42,36,48,42,36,100,98,75,30.23,30.17,0,0,1,0.00
2013-2-10,47,43,36,46,39,35,100,86,62,30.29,30.23,0,0,1,0.00
2013-2-11,48,44,42,46,44,42,100,99,83,30.31,30.25,0,0,2,0.01
2013-2-12,51,48,44,51,48,44,100,100,100,30.38,30.30,1,0,6,0.03
2013-2-13,52,48,40,50,45,39,100,91,64,30.45,30.32,5,1,10,0.01
2013-2-14,49,44,39,49,44,39,100,100,95,30.49,30.45,1,0,5,0.00
2013-2-15,59,49,43,51,46,43,100,91,62,30.45,30.12,8,2,12,0.00
2013-2-16,52,46,41,50,44,39,100,95,63,30.20,30.13,12,2,19,0.02
2013-2-17,49,42,36,45,39,34,100,90,59,30.22,30.04,0,0,1,0.01
2013-2-18,49,42,38,42,38,32,100,87,53,30.03,29.67,4,0,12,0.08
2013-2-19,53,44,36,45,39,33,100,84,48,29.93,29.63,9,1,12,0.02
2013-2-20,46,40,34,45,40,34,100,99,86,30.01,29.92,0,0,5,0.10
2013-2-21,45,43,41,45,43,41,100,100,100,30.08,29.97,3,0,11,0.11
2013-2-22,49,44,38,49,44,38,100,100,100,30.06,29.76,10,2,21,0.40
2013-2-23,48,42,39,45,39,33,100,92,61,30.36,29.96,9,0,19,0.24
2013-2-24,49,44,39,43,38,32,100,81,53,30.36,29.92,4,1,13,0.00
2013-2-25,48,42,38,44,40,33,100,92,58,30.30,29.90,13,2,21,0.21
2013-2-26,48,42,36,44,37,33,100,84,58,30.31,30.16,3,0,11,0.00
2013-2-27,50,47,44,48,42,37,100,82,67,30.23,30.16,5,1,13,0.02
2013-2-28,56,51,46,56,51,46,100,100,100,30.32,30.10,4,1,11,0.29